^^
Meteo Knjazevac Station Historical Data
Daily Summary for March 12, 2021 Units:  English    Metric   Both
Daily Weekly Monthly Yearly Custom
  High: Low: Average:
Temperature: 94.1 °F 58.5 °F 73.2 °F
Dew Point: 65.6 °F 53.8 °F 59.4 °F
Humidity: 86% 35% 66%
Wind Speed: 8mph 0mph 1.5mph
Wind Gust: 14mph - -
Wind- - WSW
Pressure: 30.17 in 30.09 in -
Precipitation: 0.00 in    
Historical Graphs
 
 
Tabular Data for March 12, 2021
Time Temperature Dew Point Pressure Wind Wind Speed Wind Gust Humidity Rainfall Rate (Hourly) solar Conditions
00:00 68.5 °F 58.4 °F 30.09 in WSW 1 mph 4 mph 70% 0.00 in 0 W/m2
00:10 68.4 °F 58.2 °F 30.09 in Calm   2 mph 70% 0.00 in 0 W/m2
00:20 68 °F 58.6 °F 30.09 in West 1 mph 2 mph 72% 0.00 in 0 W/m2
00:30 67.8 °F 58.5 °F 30.10 in WSW 1 mph 2 mph 72% 0.00 in 0 W/m2
00:40 67.5 °F 58.5 °F 30.10 in Calm   1 mph 73% 0.00 in 0 W/m2
00:50 67.1 °F 58.2 °F 30.10 in Calm   2 mph 73% 0.00 in 0 W/m2
01:00 66.4 °F 57.8 °F 30.10 in NW 1 mph 3 mph 74% 0.00 in 0 W/m2
01:10 66 °F 57.4 °F 30.10 in Calm   2 mph 74% 0.00 in 0 W/m2
01:20 65.5 °F 57.3 °F 30.10 in WSW 1 mph 3 mph 75% 0.00 in 0 W/m2
01:30 65.1 °F 57 °F 30.10 in Calm   2 mph 75% 0.00 in 0 W/m2
01:40 65.1 °F 57.7 °F 30.10 in Calm   2 mph 77% 0.00 in 0 W/m2
01:50 64.6 °F 57.2 °F 30.11 in NW 1 mph 2 mph 77% 0.00 in 0 W/m2
02:00 64.2 °F 56.8 °F 30.11 in Calm   2 mph 77% 0.00 in 0 W/m2
02:10 63.5 °F 56.2 °F 30.11 in WNW 1 mph 2 mph 77% 0.00 in 0 W/m2
02:20 63.3 °F 56 °F 30.11 in West 2 mph 4 mph 77% 0.00 in 0 W/m2
02:30 63.3 °F 55.6 °F 30.11 in West 1 mph 3 mph 76% 0.00 in 0 W/m2
02:40 63 °F 56 °F 30.11 in Calm   2 mph 78% 0.00 in 0 W/m2
02:50 62.7 °F 55.8 °F 30.11 in Calm   2 mph 78% 0.00 in 0 W/m2
03:00 62.4 °F 55.5 °F 30.12 in Calm   1 mph 78% 0.00 in 0 W/m2
03:10 62.2 °F 55.6 °F 30.11 in Calm   2 mph 79% 0.00 in 0 W/m2
03:20 62.1 °F 55.5 °F 30.12 in Calm   1 mph 79% 0.00 in 0 W/m2
03:30 61.8 °F 55.2 °F 30.12 in West 2 mph 3 mph 79% 0.00 in 0 W/m2
03:40 61.7 °F 54.8 °F 30.12 in WNW 1 mph 4 mph 78% 0.00 in 0 W/m2
03:50 61.9 °F 54.9 °F 30.12 in Calm   3 mph 78% 0.00 in 0 W/m2
04:00 61.5 °F 54.9 °F 30.12 in Calm   2 mph 79% 0.00 in 0 W/m2
04:10 61.3 °F 55.1 °F 30.12 in Calm   2 mph 80% 0.00 in 0 W/m2
04:20 60.8 °F 54.6 °F 30.12 in Calm   2 mph 80% 0.00 in 0 W/m2
04:30 60.6 °F 54.8 °F 30.12 in Calm   2 mph 81% 0.00 in 0 W/m2
04:40 60.4 °F 54.5 °F 30.13 in Calm   2 mph 81% 0.00 in 0 W/m2
04:50 60.1 °F 54.2 °F 30.13 in WNW 1 mph 2 mph 81% 0.00 in 0 W/m2
05:00 59.7 °F 53.9 °F 30.13 in WSW 1 mph 2 mph 81% 0.00 in 0 W/m2
05:10 59.4 °F 54.2 °F 30.13 in WNW 1 mph 2 mph 83% 0.00 in 0 W/m2
05:20 59.4 °F 54.2 °F 30.13 in Calm   2 mph 83% 0.00 in 0 W/m2
05:30 59.2 °F 54 °F 30.14 in Calm   2 mph 83% 0.00 in 0 W/m2
05:40 58.9 °F 54.1 °F 30.14 in NW 1 mph 1 mph 84% 0.00 in 7 W/m2
05:50 58.6 °F 53.8 °F 30.14 in NW 2 mph 3 mph 84% 0.00 in 13 W/m2
06:00 58.6 °F 54.1 °F 30.14 in West 1 mph 2 mph 85% 0.00 in 22 W/m2
06:10 58.5 °F 54 °F 30.15 in West 1 mph 2 mph 85% 0.00 in 35 W/m2
06:20 58.5 °F 54 °F 30.15 in Calm   3 mph 85% 0.00 in 43 W/m2
06:30 58.5 °F 54 °F 30.15 in NW 1 mph 2 mph 85% 0.00 in 53 W/m2
06:40 58.6 °F 54.1 °F 30.15 in Calm   2 mph 85% 0.00 in 90 W/m2
06:50 58.9 °F 54.4 °F 30.15 in Calm   1 mph 85% 0.00 in 124 W/m2
07:00 59.2 °F 55 °F 30.15 in Calm   2 mph 86% 0.00 in 135 W/m2
07:10 59.7 °F 55.5 °F 30.16 in Calm   2 mph 86% 0.00 in 113 W/m2
07:20 60.4 °F 56.2 °F 30.16 in NW 1 mph 3 mph 86% 0.00 in 187 W/m2
07:30 61.3 °F 56.8 °F 30.16 in NW 1 mph 2 mph 85% 0.00 in 251 W/m2
07:40 62.2 °F 57.3 °F 30.16 in Calm   4 mph 84% 0.00 in 284 W/m2
07:50 63.3 °F 58.1 °F 30.16 in Calm   2 mph 83% 0.00 in 324 W/m2
08:00 64.2 °F 57.9 °F 30.17 in WNW 1 mph 2 mph 80% 0.00 in 370 W/m2
08:10 65.2 °F 58.5 °F 30.17 in WNW 1 mph 3 mph 79% 0.00 in 417 W/m2
08:20 66.3 °F 59.2 °F 30.17 in NW 1 mph 3 mph 78% 0.00 in 445 W/m2
08:30 67.7 °F 60.2 °F 30.17 in Calm   3 mph 77% 0.00 in 480 W/m2
08:40 69.2 °F 60.5 °F 30.17 in SE 1 mph 5 mph 74% 0.00 in 482 W/m2
08:50 70.4 °F 61.3 °F 30.17 in SSE 1 mph 4 mph 73% 0.00 in 540 W/m2
09:00 72.2 °F 62.3 °F 30.17 in Calm   3 mph 71% 0.00 in 567 W/m2
09:10 74.8 °F 63.6 °F 30.17 in Calm   4 mph 68% 0.00 in 602 W/m2
09:20 76.9 °F 64.2 °F 30.17 in SW 1 mph 3 mph 65% 0.00 in 629 W/m2
09:30 78.5 °F 64.9 °F 30.16 in Calm   5 mph 63% 0.00 in 655 W/m2
09:40 79.6 °F 65 °F 30.17 in WSW 1 mph 3 mph 61% 0.00 in 680 W/m2
09:50 80.8 °F 65.6 °F 30.16 in WNW 1 mph 4 mph 60% 0.00 in 704 W/m2
10:00 82.2 °F 65.5 °F 30.16 in SW 2 mph 5 mph 57% 0.00 in 726 W/m2
10:10 83.2 °F 64.8 °F 30.16 in SSW 2 mph 5 mph 54% 0.00 in 748 W/m2
10:20 84 °F 65 °F 30.16 in SSE 2 mph 6 mph 53% 0.00 in 768 W/m2
10:30 85.1 °F 65.5 °F 30.16 in SW 2 mph 6 mph 52% 0.00 in 787 W/m2
10:40 85.9 °F 64.5 °F 30.16 in SSW 1 mph 5 mph 49% 0.00 in 805 W/m2
10:50 86.7 °F 64.1 °F 30.15 in SSE 3 mph 5 mph 47% 0.00 in 139 W/m2
11:00 87.3 °F 63.3 °F 30.15 in South 1 mph 6 mph 45% 0.00 in 691 W/m2
11:10 88.1 °F 64.1 °F 30.15 in SW 2 mph 6 mph 45% 0.00 in 246 W/m2
11:20 88.7 °F 63.3 °F 30.15 in West 2 mph 5 mph 43% 0.00 in 396 W/m2
11:30 89.2 °F 63.8 °F 30.15 in SSW 3 mph 7 mph 43% 0.00 in 873 W/m2
11:40 90.1 °F 64.5 °F 30.15 in ESE 2 mph 5 mph 43% 0.00 in 883 W/m2
11:50 90.6 °F 64.4 °F 30.15 in ESE 3 mph 5 mph 42% 0.00 in 890 W/m2
12:00 90.9 °F 63.2 °F 30.14 in ESE 3 mph 5 mph 40% 0.00 in 896 W/m2
12:10 91.4 °F 63.7 °F 30.14 in South 3 mph 7 mph 40% 0.00 in 901 W/m2
12:20 91.9 °F 63.4 °F 30.14 in SW 3 mph 7 mph 39% 0.00 in 904 W/m2
12:30 92.3 °F 64.5 °F 30.14 in SW 5 mph 8 mph 40% 0.00 in 905 W/m2
12:40 92.6 °F 65.4 °F 30.14 in North 2 mph 8 mph 41% 0.00 in 905 W/m2
12:50 93.6 °F 64.9 °F 30.13 in SSE 2 mph 6 mph 39% 0.00 in 903 W/m2
13:00 92.4 °F 64.6 °F 30.13 in WSW 3 mph 7 mph 40% 0.00 in 201 W/m2
13:10 91.1 °F 64.2 °F 30.13 in West 1 mph 9 mph 41% 0.00 in 895 W/m2
13:20 92.4 °F 63.8 °F 30.13 in NW 3 mph 8 mph 39% 0.00 in 577 W/m2
13:30 92.7 °F 64.1 °F 30.13 in SW 5 mph 8 mph 39% 0.00 in 443 W/m2
13:40 92.2 °F 62.9 °F 30.13 in WSW 6 mph 10 mph 38% 0.00 in 871 W/m2
13:50 93 °F 63.7 °F 30.13 in WSW 5 mph 12 mph 38% 0.00 in 860 W/m2
14:00 93.2 °F 63.8 °F 30.13 in West 8 mph 14 mph 38% 0.00 in 847 W/m2
14:10 93.6 °F 64.1 °F 30.13 in WNW 5 mph 12 mph 38% 0.00 in 833 W/m2
14:20 94 °F 62.2 °F 30.13 in NNW 7 mph 12 mph 35% 0.00 in 818 W/m2
14:30 94.1 °F 63.1 °F 30.12 in WNW 5 mph 9 mph 36% 0.00 in 801 W/m2
14:40 94.1 °F 62.3 °F 30.12 in NNW 3 mph 14 mph 35% 0.00 in 783 W/m2
14:50 93.9 °F 62.1 °F 30.12 in WSW 7 mph 14 mph 35% 0.00 in 764 W/m2
15:00 94 °F 62.2 °F 30.12 in West 7 mph 14 mph 35% 0.00 in 743 W/m2
Knjazevac, Serbia
Compliments of Weather Underground - 2 mb